sensor_id;sensor_type;location;lat;lon;timestamp;P1;durP1;ratioP1;P2;durP2;ratioP2
49396;SDS011;35615;41.410;2.194;2022-08-11T00:01:32;11.45;;;4.95;;
49396;SDS011;35615;41.410;2.194;2022-08-11T00:04:00;5.65;;;4.03;;
49396;SDS011;35615;41.410;2.194;2022-08-11T00:09:04;4.97;;;4.20;;
49396;SDS011;35615;41.410;2.194;2022-08-11T00:11:50;7.90;;;3.90;;
49396;SDS011;35615;41.410;2.194;2022-08-11T00:14:32;8.20;;;4.82;;
49396;SDS011;35615;41.410;2.194;2022-08-11T00:17:07;11.80;;;5.18;;
49396;SDS011;35615;41.410;2.194;2022-08-11T00:19:38;12.13;;;5.07;;
49396;SDS011;35615;41.410;2.194;2022-08-11T00:22:28;9.07;;;4.95;;
49396;SDS011;35615;41.410;2.194;2022-08-11T00:24:56;5.57;;;4.82;;
49396;SDS011;35615;41.410;2.194;2022-08-11T00:27:32;12.75;;;4.78;;
49396;SDS011;35615;41.410;2.194;2022-08-11T00:30:00;8.73;;;4.60;;
49396;SDS011;35615;41.410;2.194;2022-08-11T00:32:28;8.70;;;5.18;;
49396;SDS011;35615;41.410;2.194;2022-08-11T00:34:56;7.18;;;4.90;;
49396;SDS011;35615;41.410;2.194;2022-08-11T00:37:49;8.27;;;4.53;;
49396;SDS011;35615;41.410;2.194;2022-08-11T00:40:42;8.48;;;4.78;;
49396;SDS011;35615;41.410;2.194;2022-08-11T00:57:38;8.35;;;4.63;;
49396;SDS011;35615;41.410;2.194;2022-08-11T01:00:21;7.60;;;4.28;;
49396;SDS011;35615;41.410;2.194;2022-08-11T01:11:06;7.97;;;4.85;;
49396;SDS011;35615;41.410;2.194;2022-08-11T01:13:58;10.68;;;4.20;;
49396;SDS011;35615;41.410;2.194;2022-08-11T01:20:07;10.68;;;4.20;;
49396;SDS011;35615;41.410;2.194;2022-08-11T01:23:04;12.32;;;4.60;;
49396;SDS011;35615;41.410;2.194;2022-08-11T01:34:44;10.52;;;4.97;;
49396;SDS011;35615;41.410;2.194;2022-08-11T01:37:51;7.95;;;4.35;;
49396;SDS011;35615;41.410;2.194;2022-08-11T01:46:32;7.10;;;4.78;;
49396;SDS011;35615;41.410;2.194;2022-08-11T01:49:29;8.68;;;4.53;;
49396;SDS011;35615;41.410;2.194;2022-08-11T01:52:29;5.72;;;4.80;;
49396;SDS011;35615;41.410;2.194;2022-08-11T01:55:27;9.32;;;4.30;;
49396;SDS011;35615;41.410;2.194;2022-08-11T02:01:12;9.00;;;4.68;;
49396;SDS011;35615;41.410;2.194;2022-08-11T02:07:16;4.75;;;4.25;;
49396;SDS011;35615;41.410;2.194;2022-08-11T02:10:53;5.85;;;4.05;;
49396;SDS011;35615;41.410;2.194;2022-08-11T02:25:20;10.85;;;4.32;;
49396;SDS011;35615;41.410;2.194;2022-08-11T02:37:33;7.13;;;4.00;;
49396;SDS011;35615;41.410;2.194;2022-08-11T02:40:15;8.82;;;3.97;;
49396;SDS011;35615;41.410;2.194;2022-08-11T02:51:09;8.18;;;4.47;;
49396;SDS011;35615;41.410;2.194;2022-08-11T02:59:23;10.40;;;3.85;;
49396;SDS011;35615;41.410;2.194;2022-08-11T03:10:12;6.80;;;4.28;;
49396;SDS011;35615;41.410;2.194;2022-08-11T03:12:52;9.52;;;4.18;;
49396;SDS011;35615;41.410;2.194;2022-08-11T03:21:22;7.25;;;4.88;;
49396;SDS011;35615;41.410;2.194;2022-08-11T03:24:19;9.63;;;3.83;;
49396;SDS011;35615;41.410;2.194;2022-08-11T03:29:49;6.15;;;4.20;;
49396;SDS011;35615;41.410;2.194;2022-08-11T03:36:21;11.90;;;4.15;;
49396;SDS011;35615;41.410;2.194;2022-08-11T03:39:36;8.70;;;4.63;;
49396;SDS011;35615;41.410;2.194;2022-08-11T03:45:20;13.32;;;4.82;;
49396;SDS011;35615;41.410;2.194;2022-08-11T03:47:56;7.88;;;4.60;;
49396;SDS011;35615;41.410;2.194;2022-08-11T03:50:46;9.73;;;4.72;;
49396;SDS011;35615;41.410;2.194;2022-08-11T03:58:41;6.82;;;4.43;;
49396;SDS011;35615;41.410;2.194;2022-08-11T04:01:21;5.65;;;3.72;;
49396;SDS011;35615;41.410;2.194;2022-08-11T04:25:05;9.57;;;5.07;;
49396;SDS011;35615;41.410;2.194;2022-08-11T05:00:44;9.90;;;4.50;;
49396;SDS011;35615;41.410;2.194;2022-08-11T05:12:55;9.15;;;4.60;;
49396;SDS011;35615;41.410;2.194;2022-08-11T05:15:53;11.88;;;4.47;;
49396;SDS011;35615;41.410;2.194;2022-08-11T05:18:50;8.65;;;4.88;;
49396;SDS011;35615;41.410;2.194;2022-08-11T05:21:47;8.98;;;4.35;;
49396;SDS011;35615;41.410;2.194;2022-08-11T05:24:46;8.43;;;5.13;;
49396;SDS011;35615;41.410;2.194;2022-08-11T05:27:36;9.35;;;4.93;;
49396;SDS011;35615;41.410;2.194;2022-08-11T05:30:29;15.40;;;4.75;;
49396;SDS011;35615;41.410;2.194;2022-08-11T05:33:20;12.73;;;4.90;;
49396;SDS011;35615;41.410;2.194;2022-08-11T05:36:16;10.48;;;4.78;;
49396;SDS011;35615;41.410;2.194;2022-08-11T05:38:58;13.93;;;5.40;;
49396;SDS011;35615;41.410;2.194;2022-08-11T05:42:01;10.95;;;5.13;;
49396;SDS011;35615;41.410;2.194;2022-08-11T05:45:08;7.63;;;4.30;;
49396;SDS011;35615;41.410;2.194;2022-08-11T05:48:17;10.15;;;4.80;;
49396;SDS011;35615;41.410;2.194;2022-08-11T05:51:04;6.82;;;4.63;;
49396;SDS011;35615;41.410;2.194;2022-08-11T05:53:57;9.27;;;4.57;;
49396;SDS011;35615;41.410;2.194;2022-08-11T05:56:55;13.45;;;5.15;;
49396;SDS011;35615;41.410;2.194;2022-08-11T05:59:26;11.85;;;5.05;;
49396;SDS011;35615;41.410;2.194;2022-08-11T06:01:59;9.88;;;5.13;;
49396;SDS011;35615;41.410;2.194;2022-08-11T06:04:28;10.10;;;5.00;;
49396;SDS011;35615;41.410;2.194;2022-08-11T06:09:32;12.32;;;5.40;;
49396;SDS011;35615;41.410;2.194;2022-08-11T06:12:15;12.18;;;5.57;;
49396;SDS011;35615;41.410;2.194;2022-08-11T06:14:44;11.73;;;5.00;;
49396;SDS011;35615;41.410;2.194;2022-08-11T06:17:20;13.80;;;5.05;;
49396;SDS011;35615;41.410;2.194;2022-08-11T06:19:49;9.43;;;5.20;;
49396;SDS011;35615;41.410;2.194;2022-08-11T06:22:33;16.55;;;5.38;;
49396;SDS011;35615;41.410;2.194;2022-08-11T06:25:00;15.90;;;5.18;;
49396;SDS011;35615;41.410;2.194;2022-08-11T06:27:30;6.78;;;4.38;;
49396;SDS011;35615;41.410;2.194;2022-08-11T06:30:01;17.80;;;5.38;;
49396;SDS011;35615;41.410;2.194;2022-08-11T06:32:41;12.48;;;5.65;;
49396;SDS011;35615;41.410;2.194;2022-08-11T06:35:20;23.45;;;6.25;;
49396;SDS011;35615;41.410;2.194;2022-08-11T06:41:00;12.90;;;5.18;;
49396;SDS011;35615;41.410;2.194;2022-08-11T06:47:17;23.63;;;6.15;;
49396;SDS011;35615;41.410;2.194;2022-08-11T06:49:46;16.20;;;6.25;;
49396;SDS011;35615;41.410;2.194;2022-08-11T06:52:34;15.43;;;6.25;;
49396;SDS011;35615;41.410;2.194;2022-08-11T06:55:21;18.30;;;6.40;;
49396;SDS011;35615;41.410;2.194;2022-08-11T06:58:25;18.92;;;6.03;;
49396;SDS011;35615;41.410;2.194;2022-08-11T07:01:16;14.20;;;5.47;;
49396;SDS011;35615;41.410;2.194;2022-08-11T07:03:53;16.67;;;5.68;;
49396;SDS011;35615;41.410;2.194;2022-08-11T07:09:31;13.65;;;5.80;;
49396;SDS011;35615;41.410;2.194;2022-08-11T07:15:30;27.50;;;6.22;;
49396;SDS011;35615;41.410;2.194;2022-08-11T07:18:30;13.75;;;6.03;;
49396;SDS011;35615;41.410;2.194;2022-08-11T07:21:27;13.98;;;5.60;;
49396;SDS011;35615;41.410;2.194;2022-08-11T07:24:43;10.60;;;5.78;;
49396;SDS011;35615;41.410;2.194;2022-08-11T07:27:35;10.75;;;5.95;;
49396;SDS011;35615;41.410;2.194;2022-08-11T07:30:40;26.65;;;6.28;;
49396;SDS011;35615;41.410;2.194;2022-08-11T07:33:09;15.20;;;6.45;;
49396;SDS011;35615;41.410;2.194;2022-08-11T07:36:00;13.25;;;5.88;;
49396;SDS011;35615;41.410;2.194;2022-08-11T07:38:41;11.90;;;5.90;;
49396;SDS011;35615;41.410;2.194;2022-08-11T07:41:13;9.00;;;6.00;;
49396;SDS011;35615;41.410;2.194;2022-08-11T07:43:42;12.48;;;5.85;;
49396;SDS011;35615;41.410;2.194;2022-08-11T07:46:14;21.00;;;5.47;;
49396;SDS011;35615;41.410;2.194;2022-08-11T07:49:02;12.65;;;6.03;;
49396;SDS011;35615;41.410;2.194;2022-08-11T07:51:50;17.52;;;6.05;;
49396;SDS011;35615;41.410;2.194;2022-08-11T07:54:38;19.35;;;6.50;;
49396;SDS011;35615;41.410;2.194;2022-08-11T07:57:10;16.27;;;6.47;;
49396;SDS011;35615;41.410;2.194;2022-08-11T08:00:17;14.45;;;5.50;;
49396;SDS011;35615;41.410;2.194;2022-08-11T08:03:06;18.13;;;6.25;;
49396;SDS011;35615;41.410;2.194;2022-08-11T08:05:53;19.23;;;6.60;;
49396;SDS011;35615;41.410;2.194;2022-08-11T08:09:02;13.73;;;5.55;;
49396;SDS011;35615;41.410;2.194;2022-08-11T08:11:53;13.07;;;6.32;;
49396;SDS011;35615;41.410;2.194;2022-08-11T08:14:41;12.35;;;5.53;;
49396;SDS011;35615;41.410;2.194;2022-08-11T08:17:34;15.85;;;5.22;;
49396;SDS011;35615;41.410;2.194;2022-08-11T08:20:46;18.50;;;6.53;;
49396;SDS011;35615;41.410;2.194;2022-08-11T08:23:35;17.50;;;5.43;;
49396;SDS011;35615;41.410;2.194;2022-08-11T08:26:07;13.32;;;5.78;;
49396;SDS011;35615;41.410;2.194;2022-08-11T08:29:00;15.38;;;5.22;;
49396;SDS011;35615;41.410;2.194;2022-08-11T08:31:51;13.05;;;4.53;;
49396;SDS011;35615;41.410;2.194;2022-08-11T08:34:38;9.05;;;5.03;;
49396;SDS011;35615;41.410;2.194;2022-08-11T08:37:09;15.80;;;5.20;;
49396;SDS011;35615;41.410;2.194;2022-08-11T08:40:02;15.38;;;4.75;;
49396;SDS011;35615;41.410;2.194;2022-08-11T08:42:33;17.15;;;5.18;;
49396;SDS011;35615;41.410;2.194;2022-08-11T08:45:11;15.77;;;4.40;;
49396;SDS011;35615;41.410;2.194;2022-08-11T08:47:45;5.30;;;3.22;;
49396;SDS011;35615;41.410;2.194;2022-08-11T08:50:20;12.82;;;3.42;;
49396;SDS011;35615;41.410;2.194;2022-08-11T08:52:56;6.22;;;3.42;;
49396;SDS011;35615;41.410;2.194;2022-08-11T08:55:31;6.03;;;3.58;;
49396;SDS011;35615;41.410;2.194;2022-08-11T08:58:00;10.05;;;3.40;;
49396;SDS011;35615;41.410;2.194;2022-08-11T09:00:38;10.60;;;4.45;;
49396;SDS011;35615;41.410;2.194;2022-08-11T09:03:09;8.65;;;3.28;;
49396;SDS011;35615;41.410;2.194;2022-08-11T09:05:59;12.63;;;4.15;;
49396;SDS011;35615;41.410;2.194;2022-08-11T09:08:36;10.93;;;4.55;;
49396;SDS011;35615;41.410;2.194;2022-08-11T09:11:09;11.02;;;4.70;;
49396;SDS011;35615;41.410;2.194;2022-08-11T09:13:56;5.20;;;4.03;;
49396;SDS011;35615;41.410;2.194;2022-08-11T09:16:35;21.02;;;4.45;;
49396;SDS011;35615;41.410;2.194;2022-08-11T09:19:05;10.45;;;4.07;;
49396;SDS011;35615;41.410;2.194;2022-08-11T09:21:40;8.02;;;4.00;;
49396;SDS011;35615;41.410;2.194;2022-08-11T09:24:16;6.43;;;3.70;;
49396;SDS011;35615;41.410;2.194;2022-08-11T09:27:05;8.05;;;3.88;;
49396;SDS011;35615;41.410;2.194;2022-08-11T09:29:34;9.73;;;4.00;;
49396;SDS011;35615;41.410;2.194;2022-08-11T09:32:04;7.47;;;3.60;;
49396;SDS011;35615;41.410;2.194;2022-08-11T09:34:33;12.52;;;4.05;;
49396;SDS011;35615;41.410;2.194;2022-08-11T09:37:02;5.03;;;3.38;;
49396;SDS011;35615;41.410;2.194;2022-08-11T09:40:09;11.13;;;4.18;;
49396;SDS011;35615;41.410;2.194;2022-08-11T09:43:03;14.07;;;5.00;;
49396;SDS011;35615;41.410;2.194;2022-08-11T09:45:53;14.90;;;3.95;;
49396;SDS011;35615;41.410;2.194;2022-08-11T09:48:24;5.85;;;4.15;;
49396;SDS011;35615;41.410;2.194;2022-08-11T09:50:54;9.75;;;3.90;;
49396;SDS011;35615;41.410;2.194;2022-08-11T09:53:25;10.85;;;4.55;;
49396;SDS011;35615;41.410;2.194;2022-08-11T09:56:09;9.70;;;4.03;;
49396;SDS011;35615;41.410;2.194;2022-08-11T09:59:00;8.00;;;4.18;;
49396;SDS011;35615;41.410;2.194;2022-08-11T10:01:30;9.25;;;4.50;;
49396;SDS011;35615;41.410;2.194;2022-08-11T10:04:07;8.30;;;4.53;;
49396;SDS011;35615;41.410;2.194;2022-08-11T10:06:42;7.95;;;4.25;;
49396;SDS011;35615;41.410;2.194;2022-08-11T10:12:27;9.60;;;4.80;;
49396;SDS011;35615;41.410;2.194;2022-08-11T10:15:01;10.65;;;5.32;;
49396;SDS011;35615;41.410;2.194;2022-08-11T10:17:50;8.30;;;4.32;;
49396;SDS011;35615;41.410;2.194;2022-08-11T10:20:41;11.63;;;5.22;;
49396;SDS011;35615;41.410;2.194;2022-08-11T10:23:11;10.43;;;4.50;;
49396;SDS011;35615;41.410;2.194;2022-08-11T10:25:57;7.05;;;4.50;;
49396;SDS011;35615;41.410;2.194;2022-08-11T10:28:44;13.00;;;4.47;;
49396;SDS011;35615;41.410;2.194;2022-08-11T10:31:34;9.30;;;4.22;;
49396;SDS011;35615;41.410;2.194;2022-08-11T10:34:25;9.30;;;4.85;;
49396;SDS011;35615;41.410;2.194;2022-08-11T10:36:54;4.57;;;4.13;;
49396;SDS011;35615;41.410;2.194;2022-08-11T10:39:23;12.98;;;4.50;;
49396;SDS011;35615;41.410;2.194;2022-08-11T10:41:52;8.60;;;4.00;;
49396;SDS011;35615;41.410;2.194;2022-08-11T10:44:59;7.55;;;4.57;;
49396;SDS011;35615;41.410;2.194;2022-08-11T10:47:52;4.45;;;3.95;;
49396;SDS011;35615;41.410;2.194;2022-08-11T10:50:21;5.72;;;3.70;;
49396;SDS011;35615;41.410;2.194;2022-08-11T10:53:08;4.20;;;3.45;;
49396;SDS011;35615;41.410;2.194;2022-08-11T10:55:55;5.53;;;3.75;;
49396;SDS011;35615;41.410;2.194;2022-08-11T10:58:43;10.90;;;3.95;;
49396;SDS011;35615;41.410;2.194;2022-08-11T11:01:21;5.57;;;4.05;;
49396;SDS011;35615;41.410;2.194;2022-08-11T11:03:53;20.67;;;3.85;;
49396;SDS011;35615;41.410;2.194;2022-08-11T11:07:15;6.90;;;3.85;;
49396;SDS011;35615;41.410;2.194;2022-08-11T11:15:09;5.63;;;3.45;;
49396;SDS011;35615;41.410;2.194;2022-08-11T11:20:42;2.60;;;2.40;;
49396;SDS011;35615;41.410;2.194;2022-08-11T11:34:29;5.10;;;3.25;;
49396;SDS011;35615;41.410;2.194;2022-08-11T11:37:34;3.22;;;2.90;;
49396;SDS011;35615;41.410;2.194;2022-08-11T11:40:10;7.35;;;3.25;;
49396;SDS011;35615;41.410;2.194;2022-08-11T11:42:39;5.53;;;3.30;;
49396;SDS011;35615;41.410;2.194;2022-08-11T11:45:10;6.05;;;2.97;;
49396;SDS011;35615;41.410;2.194;2022-08-11T11:47:50;2.53;;;2.33;;
49396;SDS011;35615;41.410;2.194;2022-08-11T11:50:30;5.57;;;2.70;;
49396;SDS011;35615;41.410;2.194;2022-08-11T11:53:01;2.38;;;2.17;;
49396;SDS011;35615;41.410;2.194;2022-08-11T11:55:31;3.40;;;2.65;;
49396;SDS011;35615;41.410;2.194;2022-08-11T11:58:00;3.08;;;2.13;;
49396;SDS011;35615;41.410;2.194;2022-08-11T12:00:48;6.18;;;1.98;;
49396;SDS011;35615;41.410;2.194;2022-08-11T12:03:36;4.90;;;1.98;;
49396;SDS011;35615;41.410;2.194;2022-08-11T12:06:06;2.13;;;1.65;;
49396;SDS011;35615;41.410;2.194;2022-08-11T12:08:35;4.25;;;2.20;;
49396;SDS011;35615;41.410;2.194;2022-08-11T12:11:04;2.85;;;2.30;;
49396;SDS011;35615;41.410;2.194;2022-08-11T12:13:54;4.22;;;2.45;;
49396;SDS011;35615;41.410;2.194;2022-08-11T12:16:27;5.88;;;2.75;;
49396;SDS011;35615;41.410;2.194;2022-08-11T12:19:05;5.85;;;2.42;;
49396;SDS011;35615;41.410;2.194;2022-08-11T12:21:37;6.07;;;3.38;;
49396;SDS011;35615;41.410;2.194;2022-08-11T12:24:30;3.00;;;2.70;;
49396;SDS011;35615;41.410;2.194;2022-08-11T12:27:18;3.25;;;2.30;;
49396;SDS011;35615;41.410;2.194;2022-08-11T12:29:56;4.22;;;1.90;;
49396;SDS011;35615;41.410;2.194;2022-08-11T12:32:37;5.07;;;2.28;;
49396;SDS011;35615;41.410;2.194;2022-08-11T12:35:09;6.23;;;2.47;;
49396;SDS011;35615;41.410;2.194;2022-08-11T12:37:41;3.10;;;2.30;;
49396;SDS011;35615;41.410;2.194;2022-08-11T12:40:15;2.10;;;1.92;;
49396;SDS011;35615;41.410;2.194;2022-08-11T12:43:26;3.47;;;2.38;;
49396;SDS011;35615;41.410;2.194;2022-08-11T12:46:28;2.45;;;2.25;;
49396;SDS011;35615;41.410;2.194;2022-08-11T12:49:00;2.80;;;2.13;;
49396;SDS011;35615;41.410;2.194;2022-08-11T12:52:04;5.35;;;2.42;;
49396;SDS011;35615;41.410;2.194;2022-08-11T12:54:47;5.00;;;2.67;;
49396;SDS011;35615;41.410;2.194;2022-08-11T12:57:44;3.00;;;2.30;;
49396;SDS011;35615;41.410;2.194;2022-08-11T13:00:31;2.45;;;2.05;;
49396;SDS011;35615;41.410;2.194;2022-08-11T13:03:18;6.85;;;2.63;;
49396;SDS011;35615;41.410;2.194;2022-08-11T13:06:05;3.53;;;2.40;;
49396;SDS011;35615;41.410;2.194;2022-08-11T13:08:34;4.03;;;2.60;;
49396;SDS011;35615;41.410;2.194;2022-08-11T13:11:03;5.28;;;2.47;;
49396;SDS011;35615;41.410;2.194;2022-08-11T13:14:10;7.82;;;2.38;;
49396;SDS011;35615;41.410;2.194;2022-08-11T13:16:41;5.38;;;2.17;;
49396;SDS011;35615;41.410;2.194;2022-08-11T13:19:30;6.65;;;2.28;;
49396;SDS011;35615;41.410;2.194;2022-08-11T13:21:58;4.00;;;2.60;;
49396;SDS011;35615;41.410;2.194;2022-08-11T13:24:28;3.88;;;2.30;;
49396;SDS011;35615;41.410;2.194;2022-08-11T13:26:59;2.85;;;2.20;;
49396;SDS011;35615;41.410;2.194;2022-08-11T13:29:30;3.70;;;2.30;;
49396;SDS011;35615;41.410;2.194;2022-08-11T13:31:58;4.68;;;2.40;;
49396;SDS011;35615;41.410;2.194;2022-08-11T13:34:27;9.15;;;2.22;;
49396;SDS011;35615;41.410;2.194;2022-08-11T13:36:58;3.15;;;2.28;;
49396;SDS011;35615;41.410;2.194;2022-08-11T13:39:31;5.32;;;2.78;;
49396;SDS011;35615;41.410;2.194;2022-08-11T13:42:02;2.72;;;1.92;;
49396;SDS011;35615;41.410;2.194;2022-08-11T13:44:35;3.70;;;1.90;;
49396;SDS011;35615;41.410;2.194;2022-08-11T13:47:05;7.30;;;2.33;;
49396;SDS011;35615;41.410;2.194;2022-08-11T13:49:35;5.18;;;2.45;;
49396;SDS011;35615;41.410;2.194;2022-08-11T13:52:09;9.55;;;3.05;;
49396;SDS011;35615;41.410;2.194;2022-08-11T13:54:44;7.88;;;2.30;;
49396;SDS011;35615;41.410;2.194;2022-08-11T13:57:14;2.20;;;2.00;;
49396;SDS011;35615;41.410;2.194;2022-08-11T14:00:06;2.80;;;2.28;;
49396;SDS011;35615;41.410;2.194;2022-08-11T14:02:53;11.18;;;2.40;;
49396;SDS011;35615;41.410;2.194;2022-08-11T14:05:36;4.13;;;2.20;;
49396;SDS011;35615;41.410;2.194;2022-08-11T14:08:18;3.08;;;2.78;;
49396;SDS011;35615;41.410;2.194;2022-08-11T14:11:05;5.57;;;2.10;;
49396;SDS011;35615;41.410;2.194;2022-08-11T14:14:12;3.60;;;1.92;;
49396;SDS011;35615;41.410;2.194;2022-08-11T14:16:48;2.42;;;2.22;;
49396;SDS011;35615;41.410;2.194;2022-08-11T14:19:21;2.63;;;1.88;;
49396;SDS011;35615;41.410;2.194;2022-08-11T14:24:41;2.42;;;2.20;;
49396;SDS011;35615;41.410;2.194;2022-08-11T14:27:15;3.47;;;2.50;;
49396;SDS011;35615;41.410;2.194;2022-08-11T14:30:07;7.05;;;2.10;;
49396;SDS011;35615;41.410;2.194;2022-08-11T14:32:54;5.47;;;2.20;;
49396;SDS011;35615;41.410;2.194;2022-08-11T14:35:42;7.60;;;2.38;;
49396;SDS011;35615;41.410;2.194;2022-08-11T14:38:09;2.40;;;2.05;;
49396;SDS011;35615;41.410;2.194;2022-08-11T14:40:42;7.90;;;1.95;;
49396;SDS011;35615;41.410;2.194;2022-08-11T14:43:29;2.83;;;2.10;;
49396;SDS011;35615;41.410;2.194;2022-08-11T14:46:35;3.65;;;2.08;;
49396;SDS011;35615;41.410;2.194;2022-08-11T14:49:23;5.00;;;2.38;;
49396;SDS011;35615;41.410;2.194;2022-08-11T14:51:52;5.50;;;2.40;;
49396;SDS011;35615;41.410;2.194;2022-08-11T14:54:23;4.85;;;2.50;;
49396;SDS011;35615;41.410;2.194;2022-08-11T14:57:11;2.90;;;2.60;;
49396;SDS011;35615;41.410;2.194;2022-08-11T15:00:04;2.83;;;2.60;;
49396;SDS011;35615;41.410;2.194;2022-08-11T15:02:37;4.78;;;2.00;;
49396;SDS011;35615;41.410;2.194;2022-08-11T15:05:24;5.22;;;2.13;;
49396;SDS011;35615;41.410;2.194;2022-08-11T15:07:55;5.90;;;2.40;;
49396;SDS011;35615;41.410;2.194;2022-08-11T15:10:24;2.60;;;2.40;;
49396;SDS011;35615;41.410;2.194;2022-08-11T15:12:52;2.88;;;2.03;;
49396;SDS011;35615;41.410;2.194;2022-08-11T15:15:20;5.40;;;2.50;;
49396;SDS011;35615;41.410;2.194;2022-08-11T15:18:09;9.40;;;2.55;;
49396;SDS011;35615;41.410;2.194;2022-08-11T15:20:42;4.22;;;2.17;;
49396;SDS011;35615;41.410;2.194;2022-08-11T15:23:29;9.65;;;2.97;;
49396;SDS011;35615;41.410;2.194;2022-08-11T15:26:16;4.88;;;2.72;;
49396;SDS011;35615;41.410;2.194;2022-08-11T15:29:08;8.88;;;2.70;;
49396;SDS011;35615;41.410;2.194;2022-08-11T15:31:56;4.00;;;2.85;;
49396;SDS011;35615;41.410;2.194;2022-08-11T15:34:44;6.65;;;3.00;;
49396;SDS011;35615;41.410;2.194;2022-08-11T15:37:33;5.63;;;2.90;;
49396;SDS011;35615;41.410;2.194;2022-08-11T15:40:26;6.60;;;2.65;;
49396;SDS011;35615;41.410;2.194;2022-08-11T15:46:01;5.90;;;2.95;;
49396;SDS011;35615;41.410;2.194;2022-08-11T15:48:41;7.95;;;2.67;;
49396;SDS011;35615;41.410;2.194;2022-08-11T15:53:54;6.75;;;3.03;;
49396;SDS011;35615;41.410;2.194;2022-08-11T15:56:25;3.05;;;2.85;;
49396;SDS011;35615;41.410;2.194;2022-08-11T15:58:56;2.55;;;2.35;;
49396;SDS011;35615;41.410;2.194;2022-08-11T16:02:05;2.95;;;2.53;;
49396;SDS011;35615;41.410;2.194;2022-08-11T16:04:43;3.78;;;2.70;;
49396;SDS011;35615;41.410;2.194;2022-08-11T16:07:13;3.70;;;2.55;;
49396;SDS011;35615;41.410;2.194;2022-08-11T16:12:26;2.78;;;2.05;;
49396;SDS011;35615;41.410;2.194;2022-08-11T16:15:00;4.00;;;2.65;;
49396;SDS011;35615;41.410;2.194;2022-08-11T16:17:49;4.15;;;2.60;;
49396;SDS011;35615;41.410;2.194;2022-08-11T16:22:51;3.45;;;2.75;;
49396;SDS011;35615;41.410;2.194;2022-08-11T16:25:28;4.90;;;2.70;;
49396;SDS011;35615;41.410;2.194;2022-08-11T16:28:19;3.03;;;2.60;;
49396;SDS011;35615;41.410;2.194;2022-08-11T16:30:49;4.63;;;2.80;;
49396;SDS011;35615;41.410;2.194;2022-08-11T16:33:22;5.05;;;2.33;;
49396;SDS011;35615;41.410;2.194;2022-08-11T16:36:11;5.82;;;3.35;;
49396;SDS011;35615;41.410;2.194;2022-08-11T16:38:59;5.40;;;2.90;;
49396;SDS011;35615;41.410;2.194;2022-08-11T16:41:29;5.95;;;2.60;;
49396;SDS011;35615;41.410;2.194;2022-08-11T16:44:17;4.20;;;2.67;;
49396;SDS011;35615;41.410;2.194;2022-08-11T16:47:06;2.80;;;2.60;;
49396;SDS011;35615;41.410;2.194;2022-08-11T16:49:38;6.00;;;3.65;;
49396;SDS011;35615;41.410;2.194;2022-08-11T16:52:18;6.78;;;3.33;;
49396;SDS011;35615;41.410;2.194;2022-08-11T16:54:47;7.13;;;2.83;;
49396;SDS011;35615;41.410;2.194;2022-08-11T16:57:22;3.88;;;2.65;;
49396;SDS011;35615;41.410;2.194;2022-08-11T17:00:11;3.65;;;2.72;;
49396;SDS011;35615;41.410;2.194;2022-08-11T17:02:51;7.65;;;2.97;;
49396;SDS011;35615;41.410;2.194;2022-08-11T17:05:43;5.03;;;3.10;;
49396;SDS011;35615;41.410;2.194;2022-08-11T17:08:35;8.70;;;3.03;;
49396;SDS011;35615;41.410;2.194;2022-08-11T17:11:31;8.82;;;3.50;;
49396;SDS011;35615;41.410;2.194;2022-08-11T17:14:27;4.63;;;2.83;;
49396;SDS011;35615;41.410;2.194;2022-08-11T17:17:25;7.60;;;2.83;;
49396;SDS011;35615;41.410;2.194;2022-08-11T17:19:57;8.35;;;2.30;;
49396;SDS011;35615;41.410;2.194;2022-08-11T17:22:49;2.67;;;2.42;;
49396;SDS011;35615;41.410;2.194;2022-08-11T17:25:38;7.32;;;2.33;;
49396;SDS011;35615;41.410;2.194;2022-08-11T17:28:27;7.93;;;2.85;;
49396;SDS011;35615;41.410;2.194;2022-08-11T17:31:00;4.32;;;2.90;;
49396;SDS011;35615;41.410;2.194;2022-08-11T17:33:49;4.25;;;2.53;;
49396;SDS011;35615;41.410;2.194;2022-08-11T17:36:36;4.15;;;2.80;;
49396;SDS011;35615;41.410;2.194;2022-08-11T17:39:10;3.42;;;2.40;;
49396;SDS011;35615;41.410;2.194;2022-08-11T17:41:43;4.18;;;2.78;;
49396;SDS011;35615;41.410;2.194;2022-08-11T17:44:29;2.40;;;2.17;;
49396;SDS011;35615;41.410;2.194;2022-08-11T17:47:17;4.60;;;2.25;;
49396;SDS011;35615;41.410;2.194;2022-08-11T17:50:04;2.70;;;2.30;;
49396;SDS011;35615;41.410;2.194;2022-08-11T17:52:42;3.03;;;2.47;;
49396;SDS011;35615;41.410;2.194;2022-08-11T17:55:31;6.95;;;3.08;;
49396;SDS011;35615;41.410;2.194;2022-08-11T17:58:19;7.15;;;3.72;;
49396;SDS011;35615;41.410;2.194;2022-08-11T18:01:05;4.00;;;2.92;;
49396;SDS011;35615;41.410;2.194;2022-08-11T18:03:36;8.60;;;3.25;;
49396;SDS011;35615;41.410;2.194;2022-08-11T18:06:07;12.95;;;3.90;;
49396;SDS011;35615;41.410;2.194;2022-08-11T18:08:45;6.35;;;3.88;;
49396;SDS011;35615;41.410;2.194;2022-08-11T18:11:32;12.27;;;4.00;;
49396;SDS011;35615;41.410;2.194;2022-08-11T18:14:38;6.95;;;3.50;;
49396;SDS011;35615;41.410;2.194;2022-08-11T18:17:31;9.15;;;3.35;;
49396;SDS011;35615;41.410;2.194;2022-08-11T18:20:19;5.78;;;3.30;;
49396;SDS011;35615;41.410;2.194;2022-08-11T18:23:09;9.85;;;3.35;;
49396;SDS011;35615;41.410;2.194;2022-08-11T18:26:13;7.80;;;3.03;;
49396;SDS011;35615;41.410;2.194;2022-08-11T18:29:03;7.25;;;2.97;;
49396;SDS011;35615;41.410;2.194;2022-08-11T18:31:52;21.98;;;4.25;;
49396;SDS011;35615;41.410;2.194;2022-08-11T18:34:47;12.05;;;3.13;;
49396;SDS011;35615;41.410;2.194;2022-08-11T18:37:36;5.65;;;3.42;;
49396;SDS011;35615;41.410;2.194;2022-08-11T18:40:30;8.48;;;3.83;;
49396;SDS011;35615;41.410;2.194;2022-08-11T18:43:23;8.85;;;3.63;;
49396;SDS011;35615;41.410;2.194;2022-08-11T18:46:12;12.52;;;3.78;;
49396;SDS011;35615;41.410;2.194;2022-08-11T18:49:05;11.10;;;4.00;;
49396;SDS011;35615;41.410;2.194;2022-08-11T18:55:04;5.10;;;3.30;;
49396;SDS011;35615;41.410;2.194;2022-08-11T18:57:58;7.43;;;3.45;;
49396;SDS011;35615;41.410;2.194;2022-08-11T19:00:47;5.97;;;3.28;;
49396;SDS011;35615;41.410;2.194;2022-08-11T19:03:34;3.72;;;3.20;;
49396;SDS011;35615;41.410;2.194;2022-08-11T19:06:35;9.65;;;3.78;;
49396;SDS011;35615;41.410;2.194;2022-08-11T19:09:22;5.68;;;3.80;;
49396;SDS011;35615;41.410;2.194;2022-08-11T19:12:10;5.45;;;4.07;;
49396;SDS011;35615;41.410;2.194;2022-08-11T19:14:58;9.20;;;4.03;;
49396;SDS011;35615;41.410;2.194;2022-08-11T19:17:47;8.70;;;4.13;;
49396;SDS011;35615;41.410;2.194;2022-08-11T19:20:34;9.45;;;4.25;;
49396;SDS011;35615;41.410;2.194;2022-08-11T19:23:32;6.75;;;3.85;;
49396;SDS011;35615;41.410;2.194;2022-08-11T19:26:20;10.27;;;4.05;;
49396;SDS011;35615;41.410;2.194;2022-08-11T19:29:08;6.55;;;3.55;;
49396;SDS011;35615;41.410;2.194;2022-08-11T19:32:16;6.07;;;3.85;;
49396;SDS011;35615;41.410;2.194;2022-08-11T19:35:04;4.15;;;3.75;;
49396;SDS011;35615;41.410;2.194;2022-08-11T19:37:51;4.53;;;3.80;;
49396;SDS011;35615;41.410;2.194;2022-08-11T19:40:39;5.57;;;3.97;;
49396;SDS011;35615;41.410;2.194;2022-08-11T19:43:26;6.55;;;4.28;;
49396;SDS011;35615;41.410;2.194;2022-08-11T19:46:14;4.40;;;3.72;;
49396;SDS011;35615;41.410;2.194;2022-08-11T19:49:04;8.40;;;4.55;;
49396;SDS011;35615;41.410;2.194;2022-08-11T19:51:51;13.48;;;4.28;;
49396;SDS011;35615;41.410;2.194;2022-08-11T19:54:41;8.15;;;4.82;;
49396;SDS011;35615;41.410;2.194;2022-08-11T19:57:29;12.18;;;5.50;;
49396;SDS011;35615;41.410;2.194;2022-08-11T20:00:17;5.93;;;4.07;;
49396;SDS011;35615;41.410;2.194;2022-08-11T20:03:05;10.40;;;4.47;;
49396;SDS011;35615;41.410;2.194;2022-08-11T20:05:54;10.32;;;4.78;;
49396;SDS011;35615;41.410;2.194;2022-08-11T20:08:42;5.30;;;4.30;;
49396;SDS011;35615;41.410;2.194;2022-08-11T20:11:32;6.68;;;4.15;;